sensor_id;sensor_type;location;lat;lon;timestamp;P1;durP1;ratioP1;P2;durP2;ratioP2
4726;SDS011;2377;51.734;8.950;2023-04-23T00:00:18;16.80;;;11.03;;
4726;SDS011;2377;51.734;8.950;2023-04-23T00:02:47;16.10;;;11.77;;
4726;SDS011;2377;51.734;8.950;2023-04-23T00:05:19;14.43;;;11.23;;
4726;SDS011;2377;51.734;8.950;2023-04-23T00:07:47;15.53;;;12.33;;
4726;SDS011;2377;51.734;8.950;2023-04-23T00:10:15;14.10;;;11.00;;
4726;SDS011;2377;51.734;8.950;2023-04-23T00:12:43;16.60;;;12.73;;
4726;SDS011;2377;51.734;8.950;2023-04-23T00:15:11;19.67;;;15.10;;
4726;SDS011;2377;51.734;8.950;2023-04-23T00:17:39;17.40;;;14.10;;
4726;SDS011;2377;51.734;8.950;2023-04-23T00:20:08;19.97;;;15.83;;
4726;SDS011;2377;51.734;8.950;2023-04-23T00:22:35;22.63;;;18.33;;
4726;SDS011;2377;51.734;8.950;2023-04-23T00:25:02;19.27;;;14.70;;
4726;SDS011;2377;51.734;8.950;2023-04-23T00:27:30;20.03;;;17.20;;
4726;SDS011;2377;51.734;8.950;2023-04-23T00:29:57;21.30;;;16.57;;
4726;SDS011;2377;51.734;8.950;2023-04-23T00:32:24;23.83;;;19.27;;
4726;SDS011;2377;51.734;8.950;2023-04-23T00:34:51;22.53;;;18.13;;
4726;SDS011;2377;51.734;8.950;2023-04-23T00:37:20;25.40;;;20.03;;
4726;SDS011;2377;51.734;8.950;2023-04-23T00:39:47;25.00;;;20.50;;
4726;SDS011;2377;51.734;8.950;2023-04-23T00:42:14;29.60;;;24.27;;
4726;SDS011;2377;51.734;8.950;2023-04-23T00:44:41;27.83;;;22.90;;
4726;SDS011;2377;51.734;8.950;2023-04-23T00:47:08;31.87;;;26.03;;
4726;SDS011;2377;51.734;8.950;2023-04-23T00:49:36;29.80;;;23.40;;
4726;SDS011;2377;51.734;8.950;2023-04-23T00:52:04;29.87;;;22.53;;
4726;SDS011;2377;51.734;8.950;2023-04-23T00:54:32;27.50;;;21.70;;
4726;SDS011;2377;51.734;8.950;2023-04-23T00:56:59;29.97;;;23.37;;
4726;SDS011;2377;51.734;8.950;2023-04-23T00:59:27;27.20;;;20.77;;
4726;SDS011;2377;51.734;8.950;2023-04-23T01:01:55;30.80;;;23.20;;
4726;SDS011;2377;51.734;8.950;2023-04-23T01:04:23;36.80;;;28.40;;
4726;SDS011;2377;51.734;8.950;2023-04-23T01:06:54;31.60;;;25.00;;
4726;SDS011;2377;51.734;8.950;2023-04-23T01:09:22;39.33;;;27.33;;
4726;SDS011;2377;51.734;8.950;2023-04-23T01:11:53;34.20;;;24.63;;
4726;SDS011;2377;51.734;8.950;2023-04-23T01:14:22;30.67;;;23.57;;
4726;SDS011;2377;51.734;8.950;2023-04-23T01:16:49;31.70;;;24.47;;
4726;SDS011;2377;51.734;8.950;2023-04-23T01:19:16;42.10;;;29.83;;
4726;SDS011;2377;51.734;8.950;2023-04-23T01:21:43;38.90;;;25.73;;
4726;SDS011;2377;51.734;8.950;2023-04-23T01:24:12;36.97;;;24.87;;
4726;SDS011;2377;51.734;8.950;2023-04-23T01:26:39;33.90;;;24.47;;
4726;SDS011;2377;51.734;8.950;2023-04-23T01:29:06;35.67;;;25.17;;
4726;SDS011;2377;51.734;8.950;2023-04-23T01:31:34;36.20;;;27.30;;
4726;SDS011;2377;51.734;8.950;2023-04-23T01:34:02;33.27;;;24.40;;
4726;SDS011;2377;51.734;8.950;2023-04-23T01:36:29;33.73;;;24.93;;
4726;SDS011;2377;51.734;8.950;2023-04-23T01:38:57;33.50;;;24.17;;
4726;SDS011;2377;51.734;8.950;2023-04-23T01:41:25;35.47;;;24.97;;
4726;SDS011;2377;51.734;8.950;2023-04-23T01:43:53;33.60;;;25.10;;
4726;SDS011;2377;51.734;8.950;2023-04-23T01:46:22;30.23;;;22.53;;
4726;SDS011;2377;51.734;8.950;2023-04-23T01:48:49;31.80;;;22.97;;
4726;SDS011;2377;51.734;8.950;2023-04-23T01:51:16;35.60;;;25.50;;
4726;SDS011;2377;51.734;8.950;2023-04-23T01:53:43;38.57;;;27.80;;
4726;SDS011;2377;51.734;8.950;2023-04-23T01:56:10;45.00;;;30.73;;
4726;SDS011;2377;51.734;8.950;2023-04-23T01:58:39;40.63;;;29.33;;
4726;SDS011;2377;51.734;8.950;2023-04-23T02:01:06;42.83;;;31.27;;
4726;SDS011;2377;51.734;8.950;2023-04-23T02:03:33;38.00;;;28.77;;
4726;SDS011;2377;51.734;8.950;2023-04-23T02:06:00;36.97;;;27.43;;
4726;SDS011;2377;51.734;8.950;2023-04-23T02:08:29;42.03;;;31.03;;
4726;SDS011;2377;51.734;8.950;2023-04-23T02:10:56;39.73;;;27.53;;
4726;SDS011;2377;51.734;8.950;2023-04-23T02:13:23;43.60;;;29.97;;
4726;SDS011;2377;51.734;8.950;2023-04-23T02:15:51;43.60;;;31.00;;
4726;SDS011;2377;51.734;8.950;2023-04-23T02:18:18;57.00;;;37.70;;
4726;SDS011;2377;51.734;8.950;2023-04-23T02:20:45;54.97;;;34.33;;
4726;SDS011;2377;51.734;8.950;2023-04-23T02:23:12;57.13;;;37.23;;
4726;SDS011;2377;51.734;8.950;2023-04-23T02:25:39;70.13;;;44.40;;
4726;SDS011;2377;51.734;8.950;2023-04-23T02:28:07;68.53;;;42.67;;
4726;SDS011;2377;51.734;8.950;2023-04-23T02:30:37;63.73;;;40.30;;
4726;SDS011;2377;51.734;8.950;2023-04-23T02:33:10;73.07;;;45.43;;
4726;SDS011;2377;51.734;8.950;2023-04-23T02:35:38;65.10;;;41.90;;
4726;SDS011;2377;51.734;8.950;2023-04-23T02:38:05;56.83;;;37.20;;
4726;SDS011;2377;51.734;8.950;2023-04-23T02:40:32;58.27;;;39.37;;
4726;SDS011;2377;51.734;8.950;2023-04-23T02:42:59;61.00;;;39.37;;
4726;SDS011;2377;51.734;8.950;2023-04-23T02:45:26;55.63;;;37.20;;
4726;SDS011;2377;51.734;8.950;2023-04-23T02:47:52;73.73;;;45.10;;
4726;SDS011;2377;51.734;8.950;2023-04-23T02:50:21;67.30;;;43.40;;
4726;SDS011;2377;51.734;8.950;2023-04-23T02:52:48;75.80;;;47.70;;
4726;SDS011;2377;51.734;8.950;2023-04-23T02:55:15;67.37;;;43.20;;
4726;SDS011;2377;51.734;8.950;2023-04-23T02:57:42;65.20;;;41.97;;
4726;SDS011;2377;51.734;8.950;2023-04-23T03:00:09;66.33;;;41.43;;
4726;SDS011;2377;51.734;8.950;2023-04-23T03:02:38;69.70;;;42.27;;
4726;SDS011;2377;51.734;8.950;2023-04-23T03:05:06;70.10;;;44.40;;
4726;SDS011;2377;51.734;8.950;2023-04-23T03:07:35;72.00;;;43.17;;
4726;SDS011;2377;51.734;8.950;2023-04-23T03:10:02;78.03;;;48.77;;
4726;SDS011;2377;51.734;8.950;2023-04-23T03:12:30;79.27;;;47.53;;
4726;SDS011;2377;51.734;8.950;2023-04-23T03:14:57;75.43;;;44.20;;
4726;SDS011;2377;51.734;8.950;2023-04-23T03:17:24;87.50;;;46.83;;
4726;SDS011;2377;51.734;8.950;2023-04-23T03:19:51;72.87;;;44.23;;
4726;SDS011;2377;51.734;8.950;2023-04-23T03:22:18;69.90;;;42.47;;
4726;SDS011;2377;51.734;8.950;2023-04-23T03:24:46;79.40;;;45.53;;
4726;SDS011;2377;51.734;8.950;2023-04-23T03:27:13;70.23;;;43.40;;
4726;SDS011;2377;51.734;8.950;2023-04-23T03:29:40;79.93;;;45.90;;
4726;SDS011;2377;51.734;8.950;2023-04-23T03:32:07;87.83;;;50.27;;
4726;SDS011;2377;51.734;8.950;2023-04-23T03:34:34;73.93;;;44.27;;
4726;SDS011;2377;51.734;8.950;2023-04-23T03:37:01;79.00;;;46.00;;
4726;SDS011;2377;51.734;8.950;2023-04-23T03:39:28;74.50;;;44.80;;
4726;SDS011;2377;51.734;8.950;2023-04-23T03:41:56;70.90;;;41.27;;
4726;SDS011;2377;51.734;8.950;2023-04-23T03:44:23;65.97;;;40.17;;
4726;SDS011;2377;51.734;8.950;2023-04-23T03:46:50;72.40;;;41.37;;
4726;SDS011;2377;51.734;8.950;2023-04-23T03:49:17;82.90;;;48.00;;
4726;SDS011;2377;51.734;8.950;2023-04-23T03:51:44;72.93;;;43.40;;
4726;SDS011;2377;51.734;8.950;2023-04-23T03:54:11;69.90;;;41.50;;
4726;SDS011;2377;51.734;8.950;2023-04-23T03:56:37;68.00;;;41.70;;
4726;SDS011;2377;51.734;8.950;2023-04-23T03:59:06;70.37;;;40.97;;
4726;SDS011;2377;51.734;8.950;2023-04-23T04:01:33;72.87;;;41.87;;
4726;SDS011;2377;51.734;8.950;2023-04-23T04:04:00;78.57;;;44.43;;
4726;SDS011;2377;51.734;8.950;2023-04-23T04:06:27;78.07;;;45.10;;
4726;SDS011;2377;51.734;8.950;2023-04-23T04:08:55;68.67;;;40.90;;
4726;SDS011;2377;51.734;8.950;2023-04-23T04:11:22;77.77;;;45.27;;
4726;SDS011;2377;51.734;8.950;2023-04-23T04:13:49;69.47;;;42.07;;
4726;SDS011;2377;51.734;8.950;2023-04-23T04:16:17;79.13;;;45.87;;
4726;SDS011;2377;51.734;8.950;2023-04-23T04:18:44;74.50;;;43.73;;
4726;SDS011;2377;51.734;8.950;2023-04-23T04:21:11;71.00;;;42.30;;
4726;SDS011;2377;51.734;8.950;2023-04-23T04:23:38;77.73;;;44.73;;
4726;SDS011;2377;51.734;8.950;2023-04-23T04:26:05;73.77;;;41.20;;
4726;SDS011;2377;51.734;8.950;2023-04-23T04:28:32;66.03;;;40.13;;
4726;SDS011;2377;51.734;8.950;2023-04-23T04:31:01;57.60;;;36.00;;
4726;SDS011;2377;51.734;8.950;2023-04-23T04:33:30;56.53;;;35.93;;
4726;SDS011;2377;51.734;8.950;2023-04-23T04:35:59;55.23;;;34.27;;
4726;SDS011;2377;51.734;8.950;2023-04-23T04:38:27;66.00;;;40.20;;
4726;SDS011;2377;51.734;8.950;2023-04-23T04:40:54;56.00;;;32.87;;
4726;SDS011;2377;51.734;8.950;2023-04-23T04:43:22;53.63;;;33.53;;
4726;SDS011;2377;51.734;8.950;2023-04-23T04:45:50;58.63;;;34.33;;
4726;SDS011;2377;51.734;8.950;2023-04-23T04:48:17;58.10;;;34.90;;
4726;SDS011;2377;51.734;8.950;2023-04-23T04:50:45;53.03;;;33.30;;
4726;SDS011;2377;51.734;8.950;2023-04-23T04:53:13;56.73;;;34.07;;
4726;SDS011;2377;51.734;8.950;2023-04-23T04:55:40;50.73;;;32.87;;
4726;SDS011;2377;51.734;8.950;2023-04-23T04:58:06;47.43;;;30.37;;
4726;SDS011;2377;51.734;8.950;2023-04-23T05:00:34;52.57;;;33.93;;
4726;SDS011;2377;51.734;8.950;2023-04-23T05:03:02;47.90;;;31.37;;
4726;SDS011;2377;51.734;8.950;2023-04-23T05:05:31;44.97;;;30.27;;
4726;SDS011;2377;51.734;8.950;2023-04-23T05:07:59;50.67;;;31.67;;
4726;SDS011;2377;51.734;8.950;2023-04-23T05:10:27;54.83;;;35.10;;
4726;SDS011;2377;51.734;8.950;2023-04-23T05:12:54;50.83;;;32.37;;
4726;SDS011;2377;51.734;8.950;2023-04-23T05:15:22;52.80;;;31.87;;
4726;SDS011;2377;51.734;8.950;2023-04-23T05:17:49;60.30;;;37.30;;
4726;SDS011;2377;51.734;8.950;2023-04-23T05:20:17;55.60;;;33.97;;
4726;SDS011;2377;51.734;8.950;2023-04-23T05:22:45;49.80;;;31.50;;
4726;SDS011;2377;51.734;8.950;2023-04-23T05:25:14;47.60;;;31.63;;
4726;SDS011;2377;51.734;8.950;2023-04-23T05:27:41;56.00;;;35.30;;
4726;SDS011;2377;51.734;8.950;2023-04-23T05:30:09;49.87;;;32.37;;
4726;SDS011;2377;51.734;8.950;2023-04-23T05:32:36;51.10;;;32.40;;
4726;SDS011;2377;51.734;8.950;2023-04-23T05:35:04;57.30;;;36.17;;
4726;SDS011;2377;51.734;8.950;2023-04-23T05:37:32;51.80;;;32.03;;
4726;SDS011;2377;51.734;8.950;2023-04-23T05:39:59;50.37;;;31.90;;
4726;SDS011;2377;51.734;8.950;2023-04-23T05:42:30;58.67;;;35.47;;
4726;SDS011;2377;51.734;8.950;2023-04-23T05:44:57;57.33;;;35.23;;
4726;SDS011;2377;51.734;8.950;2023-04-23T05:47:24;58.73;;;37.07;;
4726;SDS011;2377;51.734;8.950;2023-04-23T05:49:50;62.60;;;38.43;;
4726;SDS011;2377;51.734;8.950;2023-04-23T05:52:17;61.83;;;36.13;;
4726;SDS011;2377;51.734;8.950;2023-04-23T05:54:45;64.03;;;38.70;;
4726;SDS011;2377;51.734;8.950;2023-04-23T05:57:11;66.53;;;40.63;;
4726;SDS011;2377;51.734;8.950;2023-04-23T05:59:40;55.70;;;34.90;;
4726;SDS011;2377;51.734;8.950;2023-04-23T06:02:07;65.33;;;38.80;;
4726;SDS011;2377;51.734;8.950;2023-04-23T06:04:36;63.90;;;39.30;;
4726;SDS011;2377;51.734;8.950;2023-04-23T06:07:02;61.33;;;37.57;;
4726;SDS011;2377;51.734;8.950;2023-04-23T06:09:29;76.00;;;42.37;;
4726;SDS011;2377;51.734;8.950;2023-04-23T06:11:56;70.57;;;40.43;;
4726;SDS011;2377;51.734;8.950;2023-04-23T06:14:23;65.17;;;40.73;;
4726;SDS011;2377;51.734;8.950;2023-04-23T06:16:51;64.80;;;39.20;;
4726;SDS011;2377;51.734;8.950;2023-04-23T06:19:18;56.30;;;34.63;;
4726;SDS011;2377;51.734;8.950;2023-04-23T06:21:45;57.63;;;35.50;;
4726;SDS011;2377;51.734;8.950;2023-04-23T06:24:12;55.60;;;33.23;;
4726;SDS011;2377;51.734;8.950;2023-04-23T06:26:39;54.47;;;35.40;;
4726;SDS011;2377;51.734;8.950;2023-04-23T06:29:06;56.17;;;35.00;;
4726;SDS011;2377;51.734;8.950;2023-04-23T06:31:33;55.27;;;35.23;;
4726;SDS011;2377;51.734;8.950;2023-04-23T06:34:01;46.93;;;29.90;;
4726;SDS011;2377;51.734;8.950;2023-04-23T06:36:28;50.80;;;32.53;;
4726;SDS011;2377;51.734;8.950;2023-04-23T06:38:55;48.20;;;32.30;;
4726;SDS011;2377;51.734;8.950;2023-04-23T06:41:21;48.83;;;32.27;;
4726;SDS011;2377;51.734;8.950;2023-04-23T06:43:48;44.53;;;29.57;;
4726;SDS011;2377;51.734;8.950;2023-04-23T06:46:15;43.67;;;28.13;;
4726;SDS011;2377;51.734;8.950;2023-04-23T06:48:42;42.20;;;27.73;;
4726;SDS011;2377;51.734;8.950;2023-04-23T06:51:11;36.63;;;22.87;;
4726;SDS011;2377;51.734;8.950;2023-04-23T06:53:40;37.70;;;25.03;;
4726;SDS011;2377;51.734;8.950;2023-04-23T06:56:09;33.00;;;21.93;;
4726;SDS011;2377;51.734;8.950;2023-04-23T06:58:36;29.43;;;21.60;;
4726;SDS011;2377;51.734;8.950;2023-04-23T07:01:03;25.53;;;18.73;;
4726;SDS011;2377;51.734;8.950;2023-04-23T07:03:31;26.00;;;19.30;;
4726;SDS011;2377;51.734;8.950;2023-04-23T07:05:58;29.63;;;21.67;;
4726;SDS011;2377;51.734;8.950;2023-04-23T07:08:26;27.53;;;20.03;;
4726;SDS011;2377;51.734;8.950;2023-04-23T07:10:53;28.67;;;20.47;;
4726;SDS011;2377;51.734;8.950;2023-04-23T07:13:20;29.70;;;19.50;;
4726;SDS011;2377;51.734;8.950;2023-04-23T07:15:48;24.47;;;19.10;;
4726;SDS011;2377;51.734;8.950;2023-04-23T07:18:15;23.77;;;17.60;;
4726;SDS011;2377;51.734;8.950;2023-04-23T07:20:42;20.43;;;15.17;;
4726;SDS011;2377;51.734;8.950;2023-04-23T07:23:09;20.30;;;15.40;;
4726;SDS011;2377;51.734;8.950;2023-04-23T07:25:38;20.50;;;16.20;;
4726;SDS011;2377;51.734;8.950;2023-04-23T07:28:05;19.90;;;15.70;;
4726;SDS011;2377;51.734;8.950;2023-04-23T07:30:32;23.67;;;16.30;;
4726;SDS011;2377;51.734;8.950;2023-04-23T07:32:59;20.73;;;15.03;;
4726;SDS011;2377;51.734;8.950;2023-04-23T07:35:26;18.90;;;14.87;;
4726;SDS011;2377;51.734;8.950;2023-04-23T07:37:53;19.03;;;14.57;;
4726;SDS011;2377;51.734;8.950;2023-04-23T07:40:22;22.60;;;15.13;;
4726;SDS011;2377;51.734;8.950;2023-04-23T07:42:51;17.63;;;14.07;;
4726;SDS011;2377;51.734;8.950;2023-04-23T07:45:18;17.57;;;13.40;;
4726;SDS011;2377;51.734;8.950;2023-04-23T07:47:45;17.00;;;13.17;;
4726;SDS011;2377;51.734;8.950;2023-04-23T07:50:13;16.40;;;12.73;;
4726;SDS011;2377;51.734;8.950;2023-04-23T07:52:40;15.70;;;11.83;;
4726;SDS011;2377;51.734;8.950;2023-04-23T07:55:07;13.97;;;11.40;;
4726;SDS011;2377;51.734;8.950;2023-04-23T07:57:35;13.77;;;10.33;;
4726;SDS011;2377;51.734;8.950;2023-04-23T08:00:04;13.17;;;10.87;;
4726;SDS011;2377;51.734;8.950;2023-04-23T08:02:33;14.40;;;10.77;;
4726;SDS011;2377;51.734;8.950;2023-04-23T08:05:00;13.20;;;9.50;;
4726;SDS011;2377;51.734;8.950;2023-04-23T08:07:27;11.90;;;9.50;;
4726;SDS011;2377;51.734;8.950;2023-04-23T08:09:55;15.63;;;10.20;;
4726;SDS011;2377;51.734;8.950;2023-04-23T08:12:26;12.80;;;9.40;;
4726;SDS011;2377;51.734;8.950;2023-04-23T08:14:54;12.50;;;8.47;;
4726;SDS011;2377;51.734;8.950;2023-04-23T08:17:23;10.13;;;7.90;;
4726;SDS011;2377;51.734;8.950;2023-04-23T08:19:50;12.77;;;8.73;;
4726;SDS011;2377;51.734;8.950;2023-04-23T08:22:17;12.07;;;9.03;;
4726;SDS011;2377;51.734;8.950;2023-04-23T08:24:44;15.60;;;8.93;;
4726;SDS011;2377;51.734;8.950;2023-04-23T08:27:12;10.73;;;8.47;;
4726;SDS011;2377;51.734;8.950;2023-04-23T08:29:39;11.50;;;9.03;;
4726;SDS011;2377;51.734;8.950;2023-04-23T08:32:06;10.50;;;8.17;;
4726;SDS011;2377;51.734;8.950;2023-04-23T08:34:38;11.40;;;9.13;;
4726;SDS011;2377;51.734;8.950;2023-04-23T08:37:18;11.10;;;9.03;;
4726;SDS011;2377;51.734;8.950;2023-04-23T08:39:57;11.10;;;8.03;;
4726;SDS011;2377;51.734;8.950;2023-04-23T08:42:26;10.50;;;8.53;;
4726;SDS011;2377;51.734;8.950;2023-04-23T08:45:05;12.33;;;8.43;;
4726;SDS011;2377;51.734;8.950;2023-04-23T08:47:33;14.90;;;8.80;;
4726;SDS011;2377;51.734;8.950;2023-04-23T08:50:06;10.20;;;8.13;;
4726;SDS011;2377;51.734;8.950;2023-04-23T08:52:36;9.30;;;6.83;;
4726;SDS011;2377;51.734;8.950;2023-04-23T08:55:07;8.13;;;7.03;;
4726;SDS011;2377;51.734;8.950;2023-04-23T08:57:40;9.90;;;7.77;;
4726;SDS011;2377;51.734;8.950;2023-04-23T09:00:08;8.90;;;7.00;;
4726;SDS011;2377;51.734;8.950;2023-04-23T09:02:37;10.17;;;7.77;;
4726;SDS011;2377;51.734;8.950;2023-04-23T09:05:09;10.03;;;7.07;;
4726;SDS011;2377;51.734;8.950;2023-04-23T09:07:38;8.43;;;7.27;;
4726;SDS011;2377;51.734;8.950;2023-04-23T09:10:07;7.90;;;6.43;;
4726;SDS011;2377;51.734;8.950;2023-04-23T09:12:37;12.80;;;7.00;;
4726;SDS011;2377;51.734;8.950;2023-04-23T09:15:07;9.50;;;6.63;;
4726;SDS011;2377;51.734;8.950;2023-04-23T09:17:37;8.73;;;6.30;;
4726;SDS011;2377;51.734;8.950;2023-04-23T09:20:09;16.07;;;7.40;;
4726;SDS011;2377;51.734;8.950;2023-04-23T09:22:39;11.17;;;7.53;;
4726;SDS011;2377;51.734;8.950;2023-04-23T09:25:08;7.57;;;5.97;;
4726;SDS011;2377;51.734;8.950;2023-04-23T09:27:37;7.53;;;6.00;;
4726;SDS011;2377;51.734;8.950;2023-04-23T09:30:05;12.53;;;6.67;;
4726;SDS011;2377;51.734;8.950;2023-04-23T09:32:36;7.67;;;6.00;;
4726;SDS011;2377;51.734;8.950;2023-04-23T09:35:05;7.00;;;5.83;;
4726;SDS011;2377;51.734;8.950;2023-04-23T09:37:37;11.83;;;8.40;;
4726;SDS011;2377;51.734;8.950;2023-04-23T09:40:08;10.87;;;6.30;;
4726;SDS011;2377;51.734;8.950;2023-04-23T09:42:38;6.77;;;5.90;;
4726;SDS011;2377;51.734;8.950;2023-04-23T09:45:06;8.27;;;6.17;;
4726;SDS011;2377;51.734;8.950;2023-04-23T09:47:38;7.37;;;5.60;;
4726;SDS011;2377;51.734;8.950;2023-04-23T09:50:09;9.30;;;6.30;;
4726;SDS011;2377;51.734;8.950;2023-04-23T09:52:37;9.33;;;7.00;;
4726;SDS011;2377;51.734;8.950;2023-04-23T09:55:05;7.73;;;6.00;;
4726;SDS011;2377;51.734;8.950;2023-04-23T09:57:34;11.07;;;5.60;;
4726;SDS011;2377;51.734;8.950;2023-04-23T10:00:11;7.00;;;4.50;;
4726;SDS011;2377;51.734;8.950;2023-04-23T10:02:44;7.00;;;5.40;;
4726;SDS011;2377;51.734;8.950;2023-04-23T10:05:15;4.90;;;3.90;;
4726;SDS011;2377;51.734;8.950;2023-04-23T10:07:43;7.50;;;4.30;;
4726;SDS011;2377;51.734;8.950;2023-04-23T10:10:13;7.90;;;3.90;;
4726;SDS011;2377;51.734;8.950;2023-04-23T10:12:40;5.23;;;3.50;;
4726;SDS011;2377;51.734;8.950;2023-04-23T10:15:09;5.20;;;3.90;;
4726;SDS011;2377;51.734;8.950;2023-04-23T10:17:37;5.00;;;3.20;;
4726;SDS011;2377;51.734;8.950;2023-04-23T10:20:06;6.23;;;4.07;;
4726;SDS011;2377;51.734;8.950;2023-04-23T10:22:37;6.57;;;3.80;;
4726;SDS011;2377;51.734;8.950;2023-04-23T10:25:09;6.50;;;4.03;;
4726;SDS011;2377;51.734;8.950;2023-04-23T10:27:38;5.60;;;3.40;;
4726;SDS011;2377;51.734;8.950;2023-04-23T10:30:07;6.17;;;3.70;;
4726;SDS011;2377;51.734;8.950;2023-04-23T10:32:37;5.20;;;3.67;;
4726;SDS011;2377;51.734;8.950;2023-04-23T10:35:05;5.80;;;3.53;;
4726;SDS011;2377;51.734;8.950;2023-04-23T10:37:35;4.33;;;3.37;;
4726;SDS011;2377;51.734;8.950;2023-04-23T10:40:06;5.40;;;3.53;;
4726;SDS011;2377;51.734;8.950;2023-04-23T10:42:38;9.73;;;3.20;;
4726;SDS011;2377;51.734;8.950;2023-04-23T10:45:13;6.07;;;3.03;;
4726;SDS011;2377;51.734;8.950;2023-04-23T10:47:42;4.70;;;3.20;;
4726;SDS011;2377;51.734;8.950;2023-04-23T10:50:20;4.27;;;3.17;;
4726;SDS011;2377;51.734;8.950;2023-04-23T10:52:51;7.97;;;3.03;;
4726;SDS011;2377;51.734;8.950;2023-04-23T10:55:20;4.37;;;2.70;;
4726;SDS011;2377;51.734;8.950;2023-04-23T10:57:55;4.90;;;2.80;;
4726;SDS011;2377;51.734;8.950;2023-04-23T11:00:27;6.10;;;3.10;;
4726;SDS011;2377;51.734;8.950;2023-04-23T11:02:56;5.40;;;2.93;;
4726;SDS011;2377;51.734;8.950;2023-04-23T11:05:23;4.30;;;2.60;;
4726;SDS011;2377;51.734;8.950;2023-04-23T11:08:02;4.53;;;2.50;;
4726;SDS011;2377;51.734;8.950;2023-04-23T11:10:31;4.33;;;3.33;;
4726;SDS011;2377;51.734;8.950;2023-04-23T11:13:19;7.13;;;3.60;;
4726;SDS011;2377;51.734;8.950;2023-04-23T11:18:55;5.40;;;3.40;;
4726;SDS011;2377;51.734;8.950;2023-04-23T11:24:34;4.73;;;2.80;;
4726;SDS011;2377;51.734;8.950;2023-04-23T11:27:06;3.93;;;2.33;;
4726;SDS011;2377;51.734;8.950;2023-04-23T11:29:35;3.90;;;2.00;;
4726;SDS011;2377;51.734;8.950;2023-04-23T11:32:05;5.23;;;2.30;;
4726;SDS011;2377;51.734;8.950;2023-04-23T11:34:34;5.60;;;1.90;;
4726;SDS011;2377;51.734;8.950;2023-04-23T11:37:04;5.00;;;2.30;;
4726;SDS011;2377;51.734;8.950;2023-04-23T11:39:31;3.77;;;2.20;;
4726;SDS011;2377;51.734;8.950;2023-04-23T11:41:59;4.97;;;2.07;;
4726;SDS011;2377;51.734;8.950;2023-04-23T11:44:29;4.13;;;1.53;;
4726;SDS011;2377;51.734;8.950;2023-04-23T11:46:58;2.90;;;1.70;;
4726;SDS011;2377;51.734;8.950;2023-04-23T11:49:27;5.57;;;1.80;;
4726;SDS011;2377;51.734;8.950;2023-04-23T11:51:54;4.07;;;1.47;;
4726;SDS011;2377;51.734;8.950;2023-04-23T11:54:26;3.13;;;1.43;;
4726;SDS011;2377;51.734;8.950;2023-04-23T11:56:55;3.80;;;1.50;;
4726;SDS011;2377;51.734;8.950;2023-04-23T11:59:27;2.30;;;1.37;;
4726;SDS011;2377;51.734;8.950;2023-04-23T12:01:54;4.27;;;1.47;;
4726;SDS011;2377;51.734;8.950;2023-04-23T12:04:24;4.80;;;1.30;;
4726;SDS011;2377;51.734;8.950;2023-04-23T12:06:54;3.53;;;1.53;;
4726;SDS011;2377;51.734;8.950;2023-04-23T12:09:23;3.83;;;1.83;;
4726;SDS011;2377;51.734;8.950;2023-04-23T12:11:52;3.20;;;1.83;;
4726;SDS011;2377;51.734;8.950;2023-04-23T12:14:26;4.50;;;2.80;;
4726;SDS011;2377;51.734;8.950;2023-04-23T12:16:55;3.10;;;2.07;;
4726;SDS011;2377;51.734;8.950;2023-04-23T12:19:27;6.20;;;3.00;;
4726;SDS011;2377;51.734;8.950;2023-04-23T12:21:56;4.40;;;2.60;;
4726;SDS011;2377;51.734;8.950;2023-04-23T12:24:26;5.97;;;2.40;;
4726;SDS011;2377;51.734;8.950;2023-04-23T12:26:57;3.97;;;2.47;;
4726;SDS011;2377;51.734;8.950;2023-04-23T12:29:29;5.70;;;2.43;;
4726;SDS011;2377;51.734;8.950;2023-04-23T12:31:57;4.00;;;2.17;;
4726;SDS011;2377;51.734;8.950;2023-04-23T12:34:25;7.70;;;2.17;;
4726;SDS011;2377;51.734;8.950;2023-04-23T12:36:53;4.73;;;2.53;;
4726;SDS011;2377;51.734;8.950;2023-04-23T12:39:23;6.47;;;2.63;;
4726;SDS011;2377;51.734;8.950;2023-04-23T12:41:54;3.40;;;2.33;;
4726;SDS011;2377;51.734;8.950;2023-04-23T12:44:24;6.43;;;2.70;;
4726;SDS011;2377;51.734;8.950;2023-04-23T12:46:56;5.73;;;2.63;;
4726;SDS011;2377;51.734;8.950;2023-04-23T12:49:27;4.73;;;2.10;;
4726;SDS011;2377;51.734;8.950;2023-04-23T12:51:54;4.80;;;1.93;;
4726;SDS011;2377;51.734;8.950;2023-04-23T12:54:25;5.13;;;1.80;;
4726;SDS011;2377;51.734;8.950;2023-04-23T12:56:53;3.10;;;1.70;;
4726;SDS011;2377;51.734;8.950;2023-04-23T12:59:21;2.80;;;1.60;;
4726;SDS011;2377;51.734;8.950;2023-04-23T13:01:49;4.60;;;1.70;;
4726;SDS011;2377;51.734;8.950;2023-04-23T13:04:18;3.50;;;1.73;;
4726;SDS011;2377;51.734;8.950;2023-04-23T13:06:45;6.70;;;1.97;;
4726;SDS011;2377;51.734;8.950;2023-04-23T13:09:13;3.80;;;1.73;;
4726;SDS011;2377;51.734;8.950;2023-04-23T13:11:40;3.13;;;1.60;;
4726;SDS011;2377;51.734;8.950;2023-04-23T13:14:08;3.83;;;1.73;;
4726;SDS011;2377;51.734;8.950;2023-04-23T13:16:35;3.33;;;1.90;;
4726;SDS011;2377;51.734;8.950;2023-04-23T13:19:03;4.27;;;1.90;;
4726;SDS011;2377;51.734;8.950;2023-04-23T13:21:31;6.00;;;1.93;;
4726;SDS011;2377;51.734;8.950;2023-04-23T13:24:01;3.90;;;1.93;;
4726;SDS011;2377;51.734;8.950;2023-04-23T13:26:28;9.67;;;2.27;;
4726;SDS011;2377;51.734;8.950;2023-04-23T13:28:56;7.13;;;2.20;;
4726;SDS011;2377;51.734;8.950;2023-04-23T13:31:23;5.07;;;1.67;;
4726;SDS011;2377;51.734;8.950;2023-04-23T13:33:51;2.60;;;1.50;;
4726;SDS011;2377;51.734;8.950;2023-04-23T13:36:18;2.30;;;1.60;;
4726;SDS011;2377;51.734;8.950;2023-04-23T13:38:47;3.03;;;1.67;;
4726;SDS011;2377;51.734;8.950;2023-04-23T13:41:14;2.60;;;1.60;;
4726;SDS011;2377;51.734;8.950;2023-04-23T13:43:41;3.47;;;2.23;;
4726;SDS011;2377;51.734;8.950;2023-04-23T13:46:08;3.03;;;1.90;;
4726;SDS011;2377;51.734;8.950;2023-04-23T13:48:35;4.23;;;2.43;;
4726;SDS011;2377;51.734;8.950;2023-04-23T13:51:02;4.13;;;2.10;;
4726;SDS011;2377;51.734;8.950;2023-04-23T13:53:30;4.57;;;1.90;;
4726;SDS011;2377;51.734;8.950;2023-04-23T13:55:58;3.93;;;2.23;;
4726;SDS011;2377;51.734;8.950;2023-04-23T13:58:25;3.37;;;2.10;;
4726;SDS011;2377;51.734;8.950;2023-04-23T14:00:52;8.00;;;2.40;;
4726;SDS011;2377;51.734;8.950;2023-04-23T14:03:19;6.30;;;2.70;;
4726;SDS011;2377;51.734;8.950;2023-04-23T14:05:46;6.20;;;2.37;;
4726;SDS011;2377;51.734;8.950;2023-04-23T14:08:13;3.77;;;2.30;;
4726;SDS011;2377;51.734;8.950;2023-04-23T14:10:40;3.93;;;2.17;;
4726;SDS011;2377;51.734;8.950;2023-04-23T14:13:08;3.27;;;1.87;;
4726;SDS011;2377;51.734;8.950;2023-04-23T14:15:35;3.60;;;2.00;;
4726;SDS011;2377;51.734;8.950;2023-04-23T14:18:02;4.63;;;1.80;;
4726;SDS011;2377;51.734;8.950;2023-04-23T14:20:30;3.90;;;2.03;;
4726;SDS011;2377;51.734;8.950;2023-04-23T14:23:00;5.13;;;2.23;;
4726;SDS011;2377;51.734;8.950;2023-04-23T14:25:39;3.73;;;1.90;;
4726;SDS011;2377;51.734;8.950;2023-04-23T14:28:15;3.13;;;1.73;;
4726;SDS011;2377;51.734;8.950;2023-04-23T14:30:58;3.43;;;1.60;;
4726;SDS011;2377;51.734;8.950;2023-04-23T14:33:27;2.70;;;1.67;;
4726;SDS011;2377;51.734;8.950;2023-04-23T14:35:54;5.40;;;1.83;;
4726;SDS011;2377;51.734;8.950;2023-04-23T14:38:21;3.23;;;1.80;;
4726;SDS011;2377;51.734;8.950;2023-04-23T14:40:48;3.17;;;1.93;;
4726;SDS011;2377;51.734;8.950;2023-04-23T14:43:16;3.30;;;2.27;;
4726;SDS011;2377;51.734;8.950;2023-04-23T14:45:43;4.93;;;1.90;;
4726;SDS011;2377;51.734;8.950;2023-04-23T14:48:10;3.83;;;1.93;;
4726;SDS011;2377;51.734;8.950;2023-04-23T14:50:37;2.90;;;1.73;;
4726;SDS011;2377;51.734;8.950;2023-04-23T14:53:04;2.73;;;1.80;;
4726;SDS011;2377;51.734;8.950;2023-04-23T14:55:34;6.37;;;1.80;;
4726;SDS011;2377;51.734;8.950;2023-04-23T14:58:02;4.03;;;1.97;;
4726;SDS011;2377;51.734;8.950;2023-04-23T15:00:31;3.43;;;1.93;;
4726;SDS011;2377;51.734;8.950;2023-04-23T15:02:59;3.27;;;1.93;;
4726;SDS011;2377;51.734;8.950;2023-04-23T15:05:30;3.60;;;1.70;;
4726;SDS011;2377;51.734;8.950;2023-04-23T15:07:57;3.77;;;1.80;;
4726;SDS011;2377;51.734;8.950;2023-04-23T15:10:24;3.63;;;1.40;;
4726;SDS011;2377;51.734;8.950;2023-04-23T15:13:00;4.00;;;1.77;;